Time;durP1;ratioP1;P1;durP2;ratioP2;P2;SDS_P1;SDS_P2;PMS_P1;PMS_P2;Temp;Humidity;BMP_temperature;BMP_pressure;BME280_temperature;BME280_humidity;BME280_pressure;Samples;Min_cycle;Max_cycle;Signal;HPM_P1;HPM_P2
2022/03/17 00:01:11;;;;;;;57.63;40.20;;;6.40;99.90;;;6.26;78.32;102356.53;4974903;28;20202;-70
2022/03/17 00:03:40;;;;;;;64.25;44.33;;;6.30;99.90;;;6.23;78.31;102358.66;4974390;28;20207;-72
2022/03/17 00:06:12;;;;;;;57.03;40.67;;;6.30;99.90;;;6.29;78.55;102358.13;4974516;28;20727;-69
2022/03/17 00:08:43;;;;;;;62.58;44.80;;;6.40;99.90;;;6.20;78.44;102362.47;4974899;28;20254;-69
2022/03/17 00:11:12;;;;;;;62.53;38.90;;;6.30;99.90;;;6.22;78.39;102375.78;4974589;28;20194;-71
2022/03/17 00:13:41;;;;;;;60.03;41.38;;;6.30;99.90;;;6.23;78.84;102381.03;4974648;28;20278;-69
2022/03/17 00:16:11;;;;;;;59.97;39.88;;;6.30;99.90;;;6.22;78.30;102379.31;4974649;28;20192;-71
2022/03/17 00:18:40;;;;;;;62.75;41.70;;;6.30;99.90;;;6.23;78.36;102375.66;4973530;28;20215;-68
2022/03/17 00:21:12;;;;;;;63.28;43.67;;;6.30;99.90;;;6.23;78.30;102381.03;4974070;28;20743;-70
2022/03/17 00:23:42;;;;;;;56.70;40.03;;;6.30;99.90;;;6.14;78.71;102379.16;4974509;28;20194;-70
2022/03/17 00:26:11;;;;;;;66.70;44.47;;;6.30;99.90;;;6.11;78.42;102387.47;4974175;28;20180;-73
2022/03/17 00:28:40;;;;;;;56.55;38.45;;;6.30;99.90;;;6.21;78.40;102388.38;4974159;28;20211;-70
2022/03/17 00:31:09;;;;;;;61.83;43.60;;;6.20;99.90;;;6.23;78.38;102377.47;4974332;28;20278;-70
2022/03/17 00:33:38;;;;;;;63.45;42.72;;;6.30;99.90;;;6.10;78.23;102372.34;4974681;28;20176;-70
2022/03/17 00:36:07;;;;;;;63.63;45.53;;;6.20;99.90;;;6.11;78.55;102374.03;4973802;28;20296;-72
2022/03/17 00:38:37;;;;;;;61.25;41.55;;;6.20;99.90;;;6.09;78.65;102373.34;4974344;28;20208;-70
2022/03/17 00:41:07;;;;;;;60.90;43.60;;;6.20;99.90;;;6.07;78.42;102383.38;4973884;28;20207;-72
2022/03/17 00:43:36;;;;;;;58.83;42.13;;;6.20;99.90;;;6.07;78.53;102380.69;4973998;28;20271;-68
2022/03/17 00:46:10;;;;;;;62.97;42.15;;;6.10;99.90;;;6.04;78.59;102387.19;4973629;28;20672;-70
2022/03/17 00:48:39;;;;;;;58.67;41.63;;;6.20;99.90;;;6.09;78.23;102379.59;4973969;28;20207;-71
2022/03/17 00:51:08;;;;;;;55.47;41.97;;;6.20;99.90;;;6.03;78.44;102381.94;4975352;28;20548;-70
2022/03/17 00:53:37;;;;;;;60.78;42.60;;;6.20;99.90;;;5.99;78.75;102372.47;4976370;28;20198;-70
2022/03/17 00:56:09;;;;;;;58.40;44.50;;;6.10;99.90;;;5.90;79.06;102367.91;4977929;28;20616;-70
2022/03/17 00:58:38;;;;;;;61.53;45.55;;;6.10;99.90;;;5.97;78.82;102371.75;4977061;28;20215;-68
2022/03/17 01:01:08;;;;;;;63.10;42.22;;;6.10;99.90;;;5.93;78.64;102367.63;4977141;28;20183;-69
2022/03/17 01:03:37;;;;;;;62.05;44.78;;;6.10;99.90;;;5.98;78.50;102377.00;4977265;28;20711;-69
2022/03/17 01:06:06;;;;;;;69.35;46.05;;;6.10;99.90;;;5.99;78.19;102370.63;4977434;28;20191;-70
2022/03/17 01:08:37;;;;;;;60.33;45.08;;;6.10;99.90;;;6.02;78.31;102372.19;4976265;28;20216;-71
2022/03/17 01:11:08;;;;;;;66.78;46.40;;;6.10;99.90;;;5.96;78.13;102361.97;4977970;28;20230;-71
2022/03/17 01:13:37;;;;;;;61.60;43.17;;;6.10;99.90;;;5.91;78.16;102367.75;4976687;28;20188;-70
2022/03/17 01:16:07;;;;;;;64.65;45.20;;;6.10;99.90;;;5.95;78.20;102365.66;4973568;28;20183;-70
2022/03/17 01:18:36;;;;;;;59.72;43.70;;;6.00;99.90;;;6.02;77.69;102372.19;4972872;28;20218;-69
2022/03/17 01:21:06;;;;;;;62.85;44.15;;;6.10;99.90;;;6.09;77.72;102376.03;4974304;28;20275;-71
2022/03/17 01:23:36;;;;;;;59.67;41.60;;;6.10;99.90;;;6.06;77.12;102374.47;4972889;28;20192;-70
2022/03/17 01:26:07;;;;;;;61.97;44.60;;;6.10;99.90;;;6.05;77.31;102375.44;4973841;28;20234;-69
2022/03/17 01:28:36;;;;;;;72.65;45.97;;;6.10;99.90;;;5.95;77.10;102366.53;4973667;28;20206;-70
2022/03/17 01:31:06;;;;;;;66.13;44.15;;;6.10;99.90;;;5.99;77.47;102370.63;4956752;28;20282;-70
2022/03/17 01:33:35;;;;;;;62.63;45.45;;;6.10;99.90;;;5.97;77.49;102363.69;4974171;28;20191;-69
2022/03/17 01:36:05;;;;;;;68.90;45.80;;;6.10;99.90;;;5.98;77.37;102354.63;4973734;28;20525;-71
2022/03/17 01:38:35;;;;;;;65.30;45.65;;;6.10;99.90;;;6.02;76.83;102356.06;4974536;28;20218;-69
2022/03/17 01:41:04;;;;;;;68.97;46.63;;;6.10;99.90;;;5.96;77.40;102356.59;4972657;28;20199;-70
2022/03/17 01:43:35;;;;;;;68.20;46.40;;;6.10;99.90;;;5.94;77.25;102353.22;4956343;28;20751;-71
2022/03/17 01:46:04;;;;;;;60.35;43.60;;;6.00;99.90;;;5.80;77.62;102356.25;4973603;28;20187;-69
2022/03/17 01:48:33;;;;;;;64.18;45.88;;;6.00;99.90;;;5.89;77.28;102352.78;4975707;28;20219;-71
2022/03/17 01:51:02;;;;;;;64.50;42.05;;;6.00;99.90;;;5.93;77.10;102351.50;4977284;28;20176;-69
2022/03/17 01:53:33;;;;;;;68.05;45.63;;;6.00;99.90;;;5.96;77.05;102351.22;4976839;28;20559;-69
2022/03/17 01:56:04;;;;;;;67.60;46.72;;;6.00;99.90;;;5.95;76.72;102361.16;4977570;28;20204;-69
2022/03/17 01:58:35;;;;;;;66.25;45.92;;;6.00;99.90;;;5.94;76.47;102358.59;4976580;28;20208;-70
2022/03/17 02:01:05;;;;;;;65.40;45.53;;;6.00;99.90;;;5.86;76.59;102345.78;4977965;28;20182;-70
2022/03/17 02:03:35;;;;;;;65.40;46.40;;;6.00;99.90;;;5.95;76.53;102345.03;4961384;28;20344;-70
2022/03/17 02:06:04;;;;;;;70.13;45.65;;;6.00;99.90;;;5.87;76.39;102349.34;4979047;28;20259;-70
2022/03/17 02:08:33;;;;;;;72.35;49.35;;;6.00;99.90;;;5.87;76.20;102347.53;4977881;28;20208;-71
2022/03/17 02:13:50;;;;;;;61.45;47.20;;;6.00;99.90;;;5.92;75.86;102347.13;4976675;28;20183;-69
2022/03/17 02:16:19;;;;;;;60.83;43.85;;;6.00;99.90;;;5.84;76.05;102342.41;4977183;28;20168;-69
2022/03/17 02:18:48;;;;;;;78.95;49.13;;;6.00;99.90;;;5.85;75.68;102340.56;4976974;28;20294;-70
2022/03/17 02:21:18;;;;;;;65.28;45.58;;;5.90;99.90;;;5.87;75.47;102341.31;4976749;28;20176;-69
2022/03/17 02:26:34;;;;;;;69.70;46.97;;;5.90;99.90;;;5.76;75.51;102336.84;4946829;28;20595;-71
2022/03/17 02:29:04;;;;;;;64.40;45.28;;;5.90;99.90;;;5.78;75.26;102334.88;4975685;28;20186;-69
2022/03/17 02:31:33;;;;;;;66.40;45.97;;;5.90;99.90;;;5.89;74.91;102328.59;4976555;28;20230;-70
2022/03/17 02:34:03;;;;;;;67.00;47.50;;;5.90;99.90;;;5.71;75.32;102327.50;4976508;28;20184;-71
2022/03/17 02:36:32;;;;;;;66.30;47.53;;;5.90;99.90;;;5.74;74.91;102336.16;4976928;28;20435;-70
2022/03/17 02:39:06;;;;;;;65.70;49.53;;;5.80;99.90;;;5.78;74.57;102326.81;4959513;28;20672;-70
2022/03/17 02:41:35;;;;;;;68.63;45.22;;;5.80;99.90;;;5.69;74.90;102327.63;4975410;28;20290;-69
2022/03/17 02:44:05;;;;;;;67.28;47.63;;;5.80;99.90;;;5.78;74.42;102325.97;4976564;28;20203;-70
2022/03/17 02:46:34;;;;;;;71.60;49.75;;;5.80;99.90;;;5.76;74.19;102325.28;4976866;28;20222;-71
2022/03/17 02:49:04;;;;;;;69.70;49.38;;;5.80;99.90;;;5.61;74.40;102327.47;4975321;28;20207;-70
2022/03/17 02:51:33;;;;;;;66.65;47.80;;;5.80;99.90;;;5.61;74.61;102325.66;4975614;28;20263;-71
2022/03/17 02:54:04;;;;;;;65.80;44.90;;;5.70;99.90;;;5.62;74.59;102313.91;4975850;28;20242;-68
2022/03/17 02:56:34;;;;;;;67.22;49.17;;;5.80;99.90;;;5.65;74.55;102319.00;4975323;28;20234;-71
2022/03/17 02:59:03;;;;;;;71.53;48.35;;;5.80;99.90;;;5.66;74.14;102307.25;4976275;28;20176;-70
2022/03/17 03:01:33;;;;;;;73.75;48.20;;;5.70;99.90;;;5.69;73.85;102308.84;4975946;28;20568;-72
2022/03/17 03:04:02;;;;;;;61.63;45.60;;;5.80;99.90;;;5.67;74.04;102314.34;4974590;28;20213;-69
2022/03/17 03:06:32;;;;;;;62.22;44.47;;;5.70;99.90;;;5.72;73.47;102313.94;4975498;28;20198;-70
2022/03/17 03:09:01;;;;;;;75.97;48.95;;;5.80;99.90;;;5.71;73.48;102306.03;4975223;28;20222;-68
2022/03/17 03:11:31;;;;;;;63.55;46.10;;;5.80;99.90;;;5.66;73.56;102301.88;4974931;28;20196;-70
2022/03/17 03:14:01;;;;;;;71.53;48.30;;;5.70;99.90;;;5.63;73.59;102304.00;4974991;28;20210;-70
2022/03/17 03:16:29;;;;;;;67.88;48.30;;;5.70;99.90;;;5.61;73.48;102309.53;4975248;28;20715;-70
2022/03/17 03:18:59;;;;;;;76.53;50.08;;;5.70;99.90;;;5.64;73.60;102309.25;4974052;28;20231;-69
2022/03/17 03:21:28;;;;;;;67.50;48.03;;;5.70;99.90;;;5.54;73.37;102297.63;4976019;28;20171;-70
2022/03/17 03:23:57;;;;;;;66.15;49.17;;;5.70;99.90;;;5.54;73.86;102297.63;4977954;28;20203;-70
2022/03/17 03:26:26;;;;;;;70.05;47.92;;;5.70;99.90;;;5.54;73.88;102302.13;4979538;28;20187;-70
2022/03/17 03:28:57;;;;;;;68.57;48.90;;;5.60;99.90;;;5.51;73.53;102297.03;4975603;28;20187;-69
2022/03/17 03:31:26;;;;;;;71.20;49.67;;;5.70;99.90;;;5.61;73.16;102296.09;4975714;28;20607;-70
2022/03/17 03:33:55;;;;;;;66.68;48.15;;;5.70;99.90;;;5.64;73.04;102298.50;4975664;28;20606;-71
2022/03/17 03:39:10;;;;;;;66.43;51.65;;;5.70;99.90;;;5.52;73.31;102304.94;4975587;28;20206;-70
2022/03/17 03:41:39;;;;;;;65.20;48.42;;;5.70;99.90;;;5.62;72.76;102311.22;4975335;28;20202;-70
2022/03/17 03:44:14;;;;;;;69.60;54.25;;;5.70;99.90;;;5.48;72.89;102303.53;4976069;28;20258;-70
2022/03/17 03:46:43;;;;;;;63.95;46.00;;;5.60;99.90;;;5.49;73.27;102321.34;4974698;28;20278;-69
2022/03/17 03:49:12;;;;;;;76.65;53.30;;;5.70;99.90;;;5.53;72.74;102314.72;4975391;28;20194;-69
2022/03/17 03:51:41;;;;;;;66.88;48.38;;;5.60;99.90;;;5.60;72.79;102315.88;4974721;28;20203;-71
2022/03/17 03:54:19;;;;;;;64.60;49.70;;;5.70;99.90;;;5.54;72.87;102310.19;4980794;28;20386;-71
2022/03/17 03:56:51;;;;;;;72.13;49.13;;;5.60;99.90;;;5.52;73.04;102307.63;4977172;28;20281;-70
2022/03/17 03:59:24;;;;;;;72.18;50.55;;;5.60;99.90;;;5.63;72.52;102301.31;4974292;28;20187;-71
2022/03/17 04:01:55;;;;;;;66.55;47.90;;;5.70;99.90;;;5.59;72.22;102295.38;4974723;28;20226;-70
2022/03/17 04:04:25;;;;;;;68.43;50.72;;;5.70;99.90;;;5.55;72.44;102293.94;4974463;28;20631;-70
2022/03/17 04:06:58;;;;;;;74.00;51.67;;;5.70;99.90;;;5.55;72.18;102301.16;4974830;28;20716;-70
2022/03/17 04:09:32;;;;;;;70.20;48.97;;;5.60;99.90;;;5.48;72.65;102311.56;4974943;28;20231;-70
2022/03/17 04:12:04;;;;;;;67.63;48.03;;;5.60;99.90;;;5.41;73.20;102310.44;4972943;28;20207;-69
2022/03/17 04:14:35;;;;;;;73.55;51.00;;;5.60;99.90;;;5.32;73.33;102308.56;4975390;28;20178;-71
2022/03/17 04:17:12;;;;;;;73.03;51.22;;;5.50;99.90;;;5.37;73.15;102309.00;4976304;28;20222;-68
2022/03/17 04:19:42;;;;;;;72.30;50.33;;;5.50;99.90;;;5.40;72.78;102299.81;4932391;29;20761;-75
2022/03/17 04:22:11;;;;;;;78.75;52.22;;;5.50;99.90;;;5.26;73.24;102311.75;4954670;29;20188;-74
2022/03/17 04:24:40;;;;;;;71.10;52.75;;;5.50;99.90;;;5.26;73.31;102309.09;4954978;28;20215;-75
2022/03/17 04:27:09;;;;;;;76.75;49.85;;;5.40;99.90;;;5.21;73.56;102305.94;4954249;28;20200;-75
2022/03/17 04:29:40;;;;;;;80.43;51.45;;;5.40;99.90;;;5.15;73.92;102295.72;4953629;28;20212;-74
2022/03/17 04:32:10;;;;;;;77.30;52.17;;;5.40;99.90;;;5.27;73.53;102299.19;4953047;29;20224;-75
2022/03/17 04:34:39;;;;;;;77.75;49.95;;;5.40;99.90;;;5.24;73.16;102284.19;4953149;29;20584;-76
2022/03/17 04:37:08;;;;;;;78.65;53.00;;;5.40;99.90;;;5.27;73.41;102296.50;4953378;29;20272;-74
2022/03/17 04:39:38;;;;;;;81.45;53.70;;;5.40;99.90;;;5.14;73.72;102299.41;4952710;28;20247;-75
2022/03/17 04:42:08;;;;;;;82.35;54.42;;;5.40;99.90;;;5.28;73.46;102303.59;4954667;29;20168;-75
2022/03/17 04:44:39;;;;;;;72.82;51.67;;;5.40;99.90;;;5.28;72.84;102307.09;4956936;29;20279;-75
2022/03/17 04:47:08;;;;;;;74.45;52.78;;;5.40;99.90;;;5.36;72.98;102309.97;4966605;29;20184;-75
2022/03/17 04:49:37;;;;;;;68.75;51.10;;;5.50;99.90;;;5.24;73.22;102306.53;4959722;29;20236;-74
2022/03/17 04:53:26;;;;;;;78.25;52.58;;;5.40;99.90;;;5.27;73.14;102304.56;4962575;29;20200;-74
2022/03/17 04:54:57;;;;;;;75.43;54.35;;;5.40;99.90;;;5.14;73.63;102304.75;4961689;28;20192;-75
2022/03/17 04:57:27;;;;;;;77.47;53.45;;;5.40;99.90;;;5.21;73.39;102306.78;4961463;29;20291;-75
2022/03/17 04:59:57;;;;;;;77.57;55.85;;;5.30;99.90;;;5.12;73.35;102304.06;4963024;29;20270;-73
2022/03/17 05:02:26;;;;;;;77.85;53.83;;;5.30;99.90;;;5.23;73.49;102309.31;4954369;29;20416;-76
2022/03/17 05:04:55;;;;;;;77.00;53.38;;;5.40;99.90;;;5.27;73.52;102320.66;4954025;28;20205;-75
2022/03/17 05:07:24;;;;;;;82.10;55.03;;;5.40;99.90;;;5.29;73.27;102319.53;4953765;29;20184;-75
2022/03/17 05:09:53;;;;;;;77.63;53.95;;;5.40;99.90;;;5.30;73.23;102320.38;4936935;29;20274;-74
2022/03/17 05:12:22;;;;;;;76.60;57.45;;;5.40;99.90;;;5.24;73.55;102322.63;4953875;29;20750;-76
2022/03/17 05:14:51;;;;;;;83.28;56.65;;;5.40;99.90;;;5.22;73.03;102326.44;4951983;29;20271;-75
2022/03/17 05:17:21;;;;;;;87.32;58.42;;;5.40;99.90;;;5.28;73.28;102328.56;4952682;28;20176;-77
2022/03/17 05:19:50;;;;;;;75.18;51.58;;;5.40;99.90;;;5.16;73.72;102340.38;4953140;29;20875;-75
2022/03/17 05:22:19;;;;;;;74.35;56.05;;;5.30;99.90;;;5.22;73.45;102339.84;4954065;28;20667;-74
2022/03/17 05:24:50;;;;;;;82.20;57.63;;;5.30;99.90;;;5.25;73.64;102334.22;4957414;29;20232;-76
2022/03/17 05:27:19;;;;;;;82.18;57.75;;;5.30;99.90;;;5.25;73.29;102328.84;4957974;29;20479;-76
2022/03/17 05:29:48;;;;;;;78.45;53.95;;;5.30;99.90;;;5.21;73.45;102340.84;4959950;29;20227;-75
2022/03/17 05:32:17;;;;;;;88.18;57.70;;;5.30;99.90;;;5.25;73.67;102343.13;4961750;29;20737;-75
2022/03/17 05:34:48;;;;;;;79.22;55.92;;;5.30;99.90;;;5.18;73.72;102333.88;4942988;29;20726;-77
2022/03/17 05:37:17;;;;;;;83.25;56.88;;;5.30;99.90;;;5.06;73.76;102340.31;4956348;29;20251;-76
2022/03/17 05:39:46;;;;;;;79.15;56.88;;;5.20;99.90;;;5.11;74.12;102348.81;4957050;29;20212;-73
2022/03/17 05:42:15;;;;;;;85.18;57.83;;;5.20;99.90;;;5.05;73.97;102354.72;4956735;29;20188;-76
2022/03/17 05:44:44;;;;;;;81.00;59.17;;;5.20;99.90;;;5.15;74.10;102354.78;4957047;29;20223;-77
2022/03/17 05:47:13;;;;;;;84.68;58.38;;;5.20;99.90;;;5.15;73.96;102344.88;4957101;29;20188;-75
2022/03/17 05:49:47;;;;;;;82.07;58.65;;;5.20;99.90;;;5.16;74.01;102340.38;4956475;29;20223;-77
2022/03/17 05:52:16;;;;;;;97.55;65.97;;;5.30;99.90;;;5.16;74.13;102356.47;4957963;29;20188;-75
2022/03/17 05:54:46;;;;;;;84.70;59.83;;;5.30;99.90;;;5.24;73.50;102349.47;4956431;29;20192;-76
2022/03/17 05:57:15;;;;;;;93.65;60.13;;;5.30;99.90;;;5.28;73.45;102347.34;4956204;29;20255;-75
2022/03/17 05:59:43;;;;;;;91.50;65.20;;;5.40;99.90;;;5.25;74.01;102355.69;4957061;29;20247;-76
2022/03/17 06:02:12;;;;;;;87.35;57.70;;;5.40;99.90;;;5.32;73.46;102345.28;4956352;29;20195;-77
2022/03/17 06:04:46;;;;;;;89.20;60.33;;;5.40;99.90;;;5.30;73.50;102352.59;4956516;29;20220;-75
2022/03/17 06:07:16;;;;;;;89.63;59.42;;;5.40;99.90;;;5.21;73.82;102340.84;4957414;29;20180;-76
2022/03/17 06:09:45;;;;;;;88.95;57.05;;;5.30;99.90;;;5.32;73.37;102356.88;4956245;29;20216;-76
2022/03/17 06:12:15;;;;;;;94.82;59.22;;;5.40;99.90;;;5.35;73.21;102351.22;4956135;29;20180;-75
2022/03/17 06:14:45;;;;;;;94.45;63.55;;;5.40;99.90;;;5.41;73.08;102350.69;4956163;29;20173;-76
2022/03/17 06:17:14;;;;;;;91.07;62.45;;;5.40;99.90;;;5.44;72.84;102361.16;4955964;28;20192;-76
2022/03/17 06:19:43;;;;;;;91.03;61.30;;;5.50;99.90;;;5.44;73.09;102350.41;4957344;29;20211;-75
2022/03/17 06:22:12;;;;;;;88.53;61.75;;;5.50;99.90;;;5.60;72.58;102350.78;4958452;29;20188;-76
2022/03/17 06:24:42;;;;;;;79.35;59.22;;;5.60;99.90;;;5.57;72.56;102350.19;4958594;29;20211;-75
2022/03/17 06:27:11;;;;;;;100.97;61.47;;;5.60;99.90;;;5.56;72.73;102346.69;4959241;29;20188;-75
2022/03/17 06:29:40;;;;;;;95.70;66.35;;;5.60;99.90;;;5.67;71.96;102343.88;4966081;29;20216;-75
2022/03/17 06:32:10;;;;;;;91.80;62.00;;;5.70;99.90;;;5.69;72.06;102354.50;4946758;29;20196;-73
2022/03/17 06:34:39;;;;;;;84.82;60.90;;;5.70;99.90;;;5.69;72.15;102358.03;4955967;28;20208;-73
2022/03/17 06:37:09;;;;;;;86.68;60.35;;;5.80;99.90;;;5.74;72.20;102363.00;4954964;29;20200;-75
2022/03/17 06:39:38;;;;;;;93.75;61.30;;;5.70;99.90;;;5.81;71.96;102357.94;4954878;29;20222;-75
2022/03/17 06:42:09;;;;;;;88.15;62.08;;;5.80;99.90;;;5.89;71.59;102355.47;4955734;29;20540;-76
2022/03/17 06:44:38;;;;;;;85.22;62.28;;;5.80;99.90;;;5.85;71.42;102348.63;4956048;29;20256;-73
2022/03/17 06:47:07;;;;;;;95.75;64.07;;;5.80;99.90;;;5.98;71.26;102350.13;4955831;29;20184;-75
2022/03/17 06:49:36;;;;;;;95.22;64.90;;;5.90;99.90;;;6.07;70.86;102349.28;4955110;29;20243;-73
2022/03/17 06:52:06;;;;;;;85.78;64.80;;;6.00;99.90;;;6.05;70.57;102353.94;4955758;29;20176;-76
2022/03/17 06:54:35;;;;;;;96.45;64.82;;;6.00;99.90;;;6.05;70.81;102339.69;4955721;29;20589;-76
2022/03/17 06:57:04;;;;;;;93.97;66.93;;;6.00;99.90;;;6.15;70.51;102345.91;4955107;29;20192;-75
2022/03/17 06:59:35;;;;;;;92.95;65.88;;;6.10;99.90;;;6.20;69.90;102348.16;4955482;29;20702;-77
2022/03/17 07:02:04;;;;;;;97.05;65.35;;;6.20;99.90;;;6.26;69.81;102345.78;4956027;29;20243;-76
2022/03/17 07:04:34;;;;;;;103.53;65.32;;;6.20;99.90;;;6.32;69.75;102336.31;4954925;29;20200;-76
2022/03/17 07:07:03;;;;;;;92.97;64.57;;;6.30;99.90;;;6.49;69.20;102339.16;4955014;29;20657;-76
2022/03/17 07:09:32;;;;;;;87.53;65.05;;;6.40;99.90;;;6.53;68.92;102335.19;4939996;29;20308;-74
2022/03/17 07:12:01;;;;;;;100.25;67.03;;;6.50;99.90;;;6.57;68.50;102337.63;4959914;29;20188;-74
2022/03/17 07:14:31;;;;;;;99.88;67.47;;;6.50;99.90;;;6.54;68.82;102336.03;4960403;29;20523;-75
2022/03/17 07:17:02;;;;;;;87.35;64.18;;;6.50;99.90;;;6.64;68.68;102346.81;4961850;29;20184;-75
2022/03/17 07:19:32;;;;;;;96.80;64.63;;;6.60;99.90;;;6.70;68.59;102343.56;4943270;29;20271;-74
2022/03/17 07:22:01;;;;;;;87.22;62.42;;;6.60;99.90;;;6.80;68.27;102349.78;4960461;29;20223;-75
2022/03/17 07:24:30;;;;;;;93.75;66.80;;;6.70;99.80;;;6.76;67.90;102353.75;4959392;29;20196;-76
2022/03/17 07:27:00;;;;;;;94.10;66.97;;;6.70;97.90;;;6.79;67.73;102354.31;4959794;29;20195;-74
2022/03/17 07:29:30;;;;;;;90.20;66.30;;;6.80;98.30;;;7.01;67.49;102350.50;4959552;29;20219;-76
2022/03/17 07:32:02;;;;;;;98.55;69.03;;;6.90;98.00;;;6.99;66.98;102352.47;4960230;29;20181;-75
2022/03/17 07:34:31;;;;;;;95.60;66.38;;;6.90;96.20;;;6.94;67.66;102349.34;4957867;29;20188;-75
2022/03/17 07:37:00;;;;;;;94.75;66.78;;;6.90;96.70;;;7.05;67.04;102345.66;4958829;29;20188;-75
2022/03/17 07:39:29;;;;;;;89.32;68.25;;;6.90;95.70;;;7.19;66.57;102348.75;4957720;29;20223;-74
2022/03/17 07:41:58;;;;;;;99.53;66.65;;;7.10;95.90;;;7.21;66.60;102352.13;4944930;28;20559;-76
2022/03/17 07:44:46;;;;;;;101.78;64.78;;;7.10;94.40;;;7.35;66.08;102354.41;4935157;28;20340;-75
2022/03/17 07:47:52;;;;;;;89.55;60.53;;;7.20;93.90;;;7.51;65.61;102363.69;4876153;29;20205;-74
2022/03/17 07:50:21;;;;;;;89.20;63.63;;;7.40;91.50;;;7.43;65.64;102367.97;4932714;29;20227;-72
2022/03/17 07:52:50;;;;;;;104.35;66.88;;;7.30;90.40;;;7.64;65.29;102356.13;4945425;29;20185;-73
2022/03/17 07:55:21;;;;;;;83.82;64.15;;;7.50;89.90;;;7.51;65.48;102353.75;4945746;29;20617;-72
2022/03/17 07:57:50;;;;;;;96.85;69.07;;;7.40;86.70;;;7.51;65.58;102367.22;4954461;29;20424;-72
2022/03/17 08:00:19;;;;;;;88.72;63.50;;;7.40;89.20;;;7.70;64.77;102371.69;4953804;29;20247;-73
2022/03/17 08:02:48;;;;;;;85.15;65.68;;;7.50;87.00;;;7.57;65.05;102365.78;4942766;28;20568;-72
2022/03/17 08:05:19;;;;;;;89.07;63.15;;;7.50;83.40;;;7.72;64.87;102367.03;4937617;29;20204;-71
2022/03/17 08:07:48;;;;;;;93.45;66.53;;;7.60;84.10;;;7.60;64.98;102368.22;4953620;29;20272;-72
2022/03/17 08:10:17;;;;;;;93.32;66.30;;;7.50;80.20;;;7.63;65.33;102374.16;4952964;29;20295;-70
2022/03/17 08:12:48;;;;;;;88.40;68.53;;;7.60;84.20;;;7.74;65.02;102370.44;4953396;29;20188;-71
2022/03/17 08:15:18;;;;;;;89.20;66.88;;;7.60;82.30;;;7.93;64.29;102369.50;4953175;29;20164;-72
2022/03/17 08:17:47;;;;;;;91.35;67.25;;;7.70;81.10;;;7.92;64.37;102368.63;4952736;28;20250;-72
2022/03/17 08:20:16;;;;;;;90.32;67.93;;;7.70;78.80;;;8.12;64.21;102366.69;4952711;29;20220;-72
2022/03/17 08:22:49;;;;;;;90.87;69.43;;;7.90;80.50;;;8.12;64.21;102372.09;4952798;29;20463;-72
2022/03/17 08:25:19;;;;;;;89.72;66.43;;;7.90;75.60;;;8.14;63.88;102368.22;4951445;29;20522;-71
2022/03/17 08:27:51;;;;;;;93.75;69.45;;;8.00;74.00;;;8.16;63.60;102370.78;4951934;29;20196;-70
2022/03/17 08:30:20;;;;;;;88.82;64.28;;;8.00;68.60;;;8.26;63.35;102375.13;4953581;29;20214;-72
2022/03/17 08:32:50;;;;;;;94.78;66.45;;;8.10;67.50;;;8.43;62.82;102361.81;4952810;29;20196;-72
2022/03/17 08:35:19;;;;;;;88.47;66.03;;;8.30;63.90;;;8.42;63.24;102354.75;4952506;29;20188;-72
2022/03/17 08:37:50;;;;;;;89.53;67.88;;;8.30;62.90;;;8.39;62.99;102355.03;4951444;29;20620;-71
2022/03/17 08:40:22;;;;;;;91.50;67.72;;;8.30;60.70;;;8.54;62.73;102348.97;4951779;29;20226;-71
2022/03/17 08:42:53;;;;;;;82.72;65.00;;;8.30;63.20;;;8.52;62.24;102353.66;4951649;29;20228;-71
2022/03/17 08:50:55;;;;;;;89.13;67.50;;;8.40;55.80;;;8.70;61.71;102356.38;4952471;29;20216;-72
2022/03/17 08:53:25;;;;;;;83.68;66.78;;;8.50;54.20;;;8.92;61.19;102355.03;4952676;29;20192;-72
2022/03/17 08:55:56;;;;;;;85.72;66.40;;;8.70;52.20;;;8.84;60.78;102361.25;4952163;29;20188;-71
2022/03/17 08:58:26;;;;;;;83.80;63.03;;;8.70;48.70;;;8.85;60.74;102362.94;4951494;29;20487;-73
2022/03/17 09:00:55;;;;;;;92.03;64.82;;;8.70;48.40;;;8.82;61.16;102351.59;4953165;29;20211;-72
2022/03/17 09:03:25;;;;;;;82.68;62.85;;;8.70;47.70;;;8.90;60.70;102354.38;4953128;29;20215;-71
2022/03/17 09:05:56;;;;;;;85.53;64.32;;;8.70;46.80;;;8.88;60.87;102353.66;4953098;29;20215;-71
2022/03/17 09:08:27;;;;;;;86.20;65.38;;;8.70;46.00;;;8.97;60.52;102356.28;4952446;29;20188;-71
2022/03/17 09:10:58;;;;;;;87.20;63.97;;;8.80;45.90;;;9.15;60.26;102353.53;4941734;29;20247;-72
2022/03/17 09:13:28;;;;;;;84.47;68.90;;;8.90;45.20;;;9.06;60.36;102354.47;4952497;29;20259;-71
2022/03/17 09:15:58;;;;;;;80.53;59.72;;;8.90;44.20;;;9.07;60.44;102359.75;4952567;29;20196;-71
2022/03/17 09:18:27;;;;;;;86.70;62.45;;;8.90;43.30;;;9.15;60.17;102356.25;4952199;29;20247;-72
2022/03/17 09:20:57;;;;;;;86.40;65.45;;;8.90;43.10;;;9.19;59.76;102356.78;4944574;28;20321;-73
2022/03/17 09:23:29;;;;;;;83.13;66.57;;;9.00;41.00;;;9.27;59.51;102351.44;4938514;29;20203;-72
2022/03/17 09:25:58;;;;;;;81.22;61.85;;;9.10;39.50;;;9.28;59.36;102358.53;4935064;29;20627;-73
2022/03/17 09:28:28;;;;;;;82.50;65.10;;;9.20;39.10;;;9.24;59.62;102359.88;4953075;28;20779;-72
2022/03/17 09:30:59;;;;;;;89.13;64.75;;;9.10;38.50;;;9.22;59.56;102353.78;4954841;29;20255;-69
2022/03/17 09:33:28;;;;;;;79.38;60.58;;;9.10;37.70;;;9.21;59.61;102360.16;4963946;29;20177;-71
2022/03/17 09:35:58;;;;;;;82.82;65.75;;;9.10;37.60;;;9.31;59.42;102355.50;4962740;28;20197;-71
2022/03/17 09:38:29;;;;;;;81.95;61.92;;;9.10;37.70;;;9.43;59.24;102362.38;4962759;29;20608;-71
2022/03/17 09:40:58;;;;;;;84.30;63.63;;;9.20;37.00;;;9.55;58.42;102359.22;4963383;29;20216;-73
2022/03/17 09:43:31;;;;;;;78.28;63.65;;;9.30;35.20;;;9.62;58.51;102350.47;4966723;29;20243;-72
2022/03/17 09:46:01;;;;;;;82.65;60.75;;;9.40;34.60;;;9.65;58.41;102356.41;4957142;29;20219;-72
2022/03/17 09:48:30;;;;;;;80.07;62.63;;;9.50;33.70;;;9.64;58.57;102353.84;4952847;29;20548;-72
2022/03/17 09:51:02;;;;;;;82.95;63.08;;;9.50;33.40;;;9.65;58.32;102359.09;4952533;29;20216;-71
2022/03/17 09:53:32;;;;;;;79.20;62.45;;;9.50;32.70;;;9.60;58.39;102361.44;4952507;29;20618;-73
2022/03/17 09:56:01;;;;;;;83.05;60.47;;;9.50;32.70;;;9.69;58.29;102363.19;4953194;29;20222;-71
2022/03/17 09:58:30;;;;;;;84.60;64.88;;;9.50;32.70;;;9.77;58.30;102365.94;4963677;29;20192;-73
2022/03/17 10:01:01;;;;;;;78.45;60.80;;;9.60;33.00;;;9.94;58.00;102370.41;4965280;29;20220;-72
2022/03/17 10:03:34;;;;;;;77.57;62.08;;;9.70;32.00;;;9.89;57.81;102370.03;4966537;29;20192;-72
2022/03/17 10:06:06;;;;;;;94.68;65.07;;;9.70;31.20;;;9.99;57.86;102359.09;4965748;29;20200;-72
2022/03/17 10:08:39;;;;;;;78.63;61.80;;;9.80;31.60;;;10.16;57.58;102370.88;4957950;28;20184;-70
2022/03/17 10:11:08;;;;;;;73.28;59.65;;;9.90;30.80;;;10.43;56.38;102373.31;4957204;29;20506;-71
2022/03/17 10:13:46;;;;;;;74.03;60.58;;;10.10;28.20;;;10.51;56.30;102369.78;4955658;28;20192;-71
2022/03/17 10:16:18;;;;;;;78.23;60.70;;;10.30;27.30;;;10.65;55.66;102369.16;4955528;29;20235;-72
2022/03/17 10:18:56;;;;;;;81.60;64.30;;;10.40;26.00;;;10.80;54.93;102371.00;4955288;29;20964;-73
2022/03/17 10:21:26;;;;;;;75.13;60.57;;;10.60;24.40;;;10.88;54.25;102378.31;4958710;29;20423;-74
2022/03/17 10:24:00;;;;;;;72.90;57.00;;;10.70;22.40;;;11.21;53.80;102385.41;4955226;29;20428;-72
2022/03/17 10:26:42;;;;;;;71.90;56.57;;;10.90;22.30;;;11.13;53.24;102393.56;4953521;29;20470;-74
2022/03/17 10:29:14;;;;;;;78.63;60.13;;;11.00;20.30;;;11.23;53.45;102390.69;4954653;29;20486;-73
2022/03/17 10:31:58;;;;;;;75.67;60.37;;;11.00;20.20;;;11.33;53.81;102391.31;4954748;29;20432;-72
2022/03/17 10:34:30;;;;;;;72.10;58.80;;;11.00;21.30;;;11.56;52.68;102389.63;4954730;29;20420;-71
2022/03/17 10:37:11;;;;;;;66.27;56.40;;;11.20;19.00;;;11.82;52.10;102402.09;4953956;29;20419;-74
2022/03/17 10:39:45;;;;;;;68.27;56.53;;;11.50;18.20;;;11.86;51.15;102396.16;4958422;29;20454;-73